Time;durP1;ratioP1;P1;durP2;ratioP2;P2;SDS_P1;SDS_P2;PMS_P1;PMS_P2;Temp;Humidity;BMP_temperature;BMP_pressure;BME280_temperature;BME280_humidity;BME280_pressure;Samples;Min_cycle;Max_cycle;Signal;HPM_P1;HPM_P2
2023/09/02 00:18:33;;;;;;;7.18;5.95;;;19.80;99.90;;;;;;4573050;19;20091;-74
2023/09/02 00:20:09;;;;;;;11.05;6.38;;;19.80;99.90;;;;;;4591707;19;20007;-74
2023/09/02 00:21:43;;;;;;;8.73;5.70;;;19.80;99.90;;;;;;4589977;19;20007;-74
2023/09/02 00:23:19;;;;;;;8.68;5.75;;;19.90;99.90;;;;;;4590007;19;20007;-74
2023/09/02 00:24:54;;;;;;;9.50;6.88;;;19.90;99.90;;;;;;4591170;19;20018;-74
2023/09/02 00:26:28;;;;;;;9.77;7.05;;;19.90;99.90;;;;;;4590320;19;20003;-74
2023/09/02 00:28:02;;;;;;;9.23;6.47;;;19.90;99.90;;;;;;4590726;19;20005;-74
2023/09/02 00:29:37;;;;;;;8.63;6.60;;;19.80;99.90;;;;;;4591709;19;20372;-74
2023/09/02 00:31:12;;;;;;;9.45;6.85;;;19.80;99.90;;;;;;4591444;19;20007;-74
2023/09/02 00:32:46;;;;;;;9.98;6.65;;;19.90;99.90;;;;;;4590122;19;20174;-74
2023/09/02 00:34:21;;;;;;;8.68;6.45;;;19.80;99.90;;;;;;4590864;19;19999;-74
2023/09/02 00:35:58;;;;;;;9.75;6.95;;;19.80;99.90;;;;;;4589834;19;20078;-74
2023/09/02 00:37:32;;;;;;;9.43;6.75;;;19.80;99.90;;;;;;4589982;19;20394;-74
2023/09/02 00:39:07;;;;;;;11.77;7.40;;;19.80;99.90;;;;;;4591778;19;20007;-74
2023/09/02 00:40:42;;;;;;;11.18;7.75;;;19.80;99.90;;;;;;4591145;19;20070;-74
2023/09/02 00:42:16;;;;;;;13.32;8.70;;;19.80;99.90;;;;;;4591019;19;20309;-74
2023/09/02 00:43:52;;;;;;;10.15;6.97;;;19.80;99.90;;;;;;4589759;19;20006;-74
2023/09/02 00:45:27;;;;;;;12.70;7.75;;;19.80;99.90;;;;;;4591344;19;20026;-74
2023/09/02 00:47:02;;;;;;;13.77;7.03;;;19.80;99.90;;;;;;4595294;19;20029;-73
2023/09/02 00:48:37;;;;;;;12.18;8.48;;;19.80;99.90;;;;;;4593201;19;20295;-74
2023/09/02 00:50:11;;;;;;;10.77;7.95;;;19.80;99.90;;;;;;4595167;19;20306;-74
2023/09/02 00:51:45;;;;;;;11.73;8.73;;;19.80;99.90;;;;;;4595717;19;20021;-74
2023/09/02 00:53:20;;;;;;;11.15;9.35;;;19.80;99.90;;;;;;4595697;19;20413;-74
2023/09/02 00:54:54;;;;;;;14.18;10.40;;;19.80;99.90;;;;;;4595722;19;20002;-74
2023/09/02 00:56:30;;;;;;;15.68;11.65;;;19.80;99.90;;;;;;4593786;19;20010;-74
2023/09/02 00:58:06;;;;;;;15.73;12.15;;;19.80;99.90;;;;;;4593434;19;20010;-74
2023/09/02 00:59:40;;;;;;;17.52;13.38;;;19.80;99.90;;;;;;4595178;19;20013;-74
2023/09/02 01:01:14;;;;;;;15.50;12.73;;;19.80;99.90;;;;;;4595860;19;20002;-74
2023/09/02 01:02:50;;;;;;;16.73;13.07;;;19.80;99.90;;;;;;4594633;19;20010;-74
2023/09/02 01:04:25;;;;;;;16.10;12.63;;;19.80;99.90;;;;;;4594892;19;20437;-73
2023/09/02 01:06:00;;;;;;;15.57;12.43;;;19.70;99.90;;;;;;4594903;19;20014;-74
2023/09/02 01:07:36;;;;;;;15.48;12.40;;;19.70;99.90;;;;;;4595501;19;20070;-74
2023/09/02 01:09:11;;;;;;;15.77;12.23;;;19.70;99.90;;;;;;4594567;19;20006;-74
2023/09/02 01:10:45;;;;;;;14.13;10.82;;;19.70;99.90;;;;;;4595600;19;20002;-74
2023/09/02 01:12:21;;;;;;;13.68;10.57;;;19.70;99.90;;;;;;4595229;19;20035;-74
2023/09/02 01:13:55;;;;;;;13.18;10.15;;;19.70;99.90;;;;;;4595757;19;20002;-73
2023/09/02 01:15:32;;;;;;;15.13;11.25;;;19.70;99.90;;;;;;4595793;19;20006;-74
2023/09/02 01:17:07;;;;;;;12.60;9.88;;;19.70;99.90;;;;;;4593530;19;20013;-74
2023/09/02 01:18:43;;;;;;;12.98;9.95;;;19.70;99.90;;;;;;4592801;19;20090;-74
2023/09/02 01:20:18;;;;;;;11.52;9.85;;;19.70;99.90;;;;;;4594201;19;20330;-74
2023/09/02 01:22:14;;;;;;;12.38;9.20;;;19.70;99.90;;;;;;4595345;19;20007;-74
2023/09/02 01:24:23;;;;;;;12.07;10.00;;;19.70;99.90;;;;;;4595728;19;20468;-74
2023/09/02 01:26:17;;;;;;;11.27;9.02;;;19.70;99.90;;;;;;4594538;19;20360;-74
2023/09/02 01:27:58;;;;;;;12.35;9.57;;;19.70;99.90;;;;;;4595097;19;20028;-74
2023/09/02 01:29:38;;;;;;;11.10;9.23;;;19.60;99.90;;;;;;4594477;19;20007;-74
2023/09/02 01:31:13;;;;;;;12.05;8.93;;;19.60;99.90;;;;;;4595512;19;20037;-73
2023/09/02 01:32:50;;;;;;;11.05;8.43;;;19.60;99.90;;;;;;4595515;19;20349;-73
2023/09/02 01:34:24;;;;;;;10.90;7.97;;;19.60;99.90;;;;;;4594161;19;20325;-73
2023/09/02 01:35:58;;;;;;;10.07;7.90;;;19.60;99.90;;;;;;4594278;19;19998;-74
2023/09/02 01:37:42;;;;;;;9.13;7.82;;;19.60;99.90;;;;;;4593002;19;20003;-74
2023/09/02 01:39:17;;;;;;;11.82;8.70;;;19.60;99.90;;;;;;4594338;19;20039;-74
2023/09/02 01:40:52;;;;;;;9.90;8.10;;;19.60;99.90;;;;;;4594198;19;20005;-74
2023/09/02 01:42:27;;;;;;;11.75;8.30;;;19.60;99.90;;;;;;4595211;19;20023;-73
2023/09/02 01:44:01;;;;;;;10.80;8.25;;;19.60;99.90;;;;;;4593861;19;20058;-74
2023/09/02 01:45:36;;;;;;;9.32;7.82;;;19.60;99.90;;;;;;4593856;19;20022;-74
2023/09/02 01:47:12;;;;;;;12.30;8.00;;;19.60;99.90;;;;;;4593853;19;20006;-74
2023/09/02 01:48:46;;;;;;;10.77;7.15;;;19.60;99.90;;;;;;4592427;19;20003;-73
2023/09/02 01:50:24;;;;;;;10.88;7.82;;;19.60;99.90;;;;;;4593714;19;20005;-73
2023/09/02 01:51:59;;;;;;;10.48;7.22;;;19.60;99.90;;;;;;4595071;19;20010;-73
2023/09/02 01:53:33;;;;;;;11.40;7.82;;;19.60;99.90;;;;;;4593640;19;20006;-74
2023/09/02 01:55:08;;;;;;;10.02;7.20;;;19.50;99.90;;;;;;4594853;19;20426;-73
2023/09/02 01:56:44;;;;;;;11.80;8.00;;;19.50;99.90;;;;;;4592546;19;20025;-73
2023/09/02 01:58:17;;;;;;;10.10;7.25;;;19.50;99.90;;;;;;4593768;19;20039;-74
2023/09/02 01:59:51;;;;;;;10.13;7.47;;;19.50;99.90;;;;;;4595132;19;20017;-74
2023/09/02 02:01:26;;;;;;;8.73;6.72;;;19.50;99.90;;;;;;4595348;19;20002;-74
2023/09/02 02:03:01;;;;;;;9.77;6.95;;;19.50;99.90;;;;;;4594798;19;20429;-74
2023/09/02 02:04:36;;;;;;;8.77;6.93;;;19.50;99.90;;;;;;4594765;19;20070;-74
2023/09/02 02:06:11;;;;;;;9.93;6.95;;;19.50;99.90;;;;;;4593745;19;20010;-74
2023/09/02 02:07:47;;;;;;;9.05;6.72;;;19.50;99.90;;;;;;4594334;19;20006;-74
2023/09/02 02:09:41;;;;;;;9.48;7.05;;;19.50;99.90;;;;;;4593634;19;20425;-74
2023/09/02 02:11:16;;;;;;;11.43;7.32;;;19.50;99.90;;;;;;4593388;19;20011;-74
2023/09/02 02:12:49;;;;;;;8.10;6.68;;;19.50;99.90;;;;;;4593615;19;20429;-74
2023/09/02 02:14:24;;;;;;;7.63;6.53;;;19.50;99.90;;;;;;4594243;19;20014;-74
2023/09/02 02:15:59;;;;;;;7.30;5.82;;;19.60;99.90;;;;;;4594645;19;20007;-74
2023/09/02 02:17:33;;;;;;;9.73;6.45;;;19.50;99.90;;;;;;4593343;19;19998;-74
2023/09/02 02:19:07;;;;;;;8.93;6.55;;;19.60;99.90;;;;;;4592842;19;20326;-74
2023/09/02 02:20:52;;;;;;;8.52;6.47;;;19.60;99.90;;;;;;4594572;19;20007;-74
2023/09/02 02:22:26;;;;;;;9.68;6.32;;;19.60;99.90;;;;;;4593166;19;20063;-74
2023/09/02 02:24:00;;;;;;;8.90;6.30;;;19.60;99.90;;;;;;4594065;19;20006;-74
2023/09/02 02:25:35;;;;;;;10.13;6.07;;;19.60;99.90;;;;;;4594370;19;20309;-74
2023/09/02 02:27:10;;;;;;;8.10;6.00;;;19.50;99.90;;;;;;4594320;19;20018;-74
2023/09/02 02:28:44;;;;;;;8.65;6.15;;;19.50;99.90;;;;;;4593134;19;20418;-74
2023/09/02 02:30:19;;;;;;;9.55;6.97;;;19.50;99.90;;;;;;4594329;19;20006;-74
2023/09/02 02:31:53;;;;;;;9.77;6.35;;;19.50;99.90;;;;;;4594474;19;20006;-74
2023/09/02 02:33:27;;;;;;;7.80;6.05;;;19.50;99.90;;;;;;4592649;19;20310;-74
2023/09/02 02:35:05;;;;;;;8.65;6.40;;;19.50;99.90;;;;;;4594205;19;20105;-75
2023/09/02 02:36:39;;;;;;;8.95;6.18;;;19.50;99.90;;;;;;4594362;19;20320;-74
2023/09/02 02:38:13;;;;;;;7.90;5.60;;;19.50;99.90;;;;;;4591930;19;20299;-75
2023/09/02 02:39:48;;;;;;;6.88;5.55;;;19.50;99.90;;;;;;4594438;19;20006;-74
2023/09/02 02:41:22;;;;;;;7.60;5.30;;;19.50;99.90;;;;;;4594041;19;20019;-75
2023/09/02 02:42:57;;;;;;;7.63;5.88;;;19.50;99.90;;;;;;4594328;19;20339;-74
2023/09/02 02:44:35;;;;;;;7.68;5.60;;;19.60;99.90;;;;;;4594029;19;20070;-74
2023/09/02 02:46:09;;;;;;;8.60;6.10;;;19.50;99.90;;;;;;4594242;19;20013;-74
2023/09/02 02:47:44;;;;;;;8.10;5.60;;;19.50;99.90;;;;;;4593629;19;20010;-74
2023/09/02 02:49:19;;;;;;;7.97;5.80;;;19.50;99.90;;;;;;4594410;19;20010;-74
2023/09/02 02:50:53;;;;;;;8.23;5.47;;;19.50;99.90;;;;;;4593275;19;20003;-74
2023/09/02 02:52:29;;;;;;;7.20;5.70;;;19.50;99.90;;;;;;4593164;19;19999;-74
2023/09/02 02:54:04;;;;;;;8.95;5.63;;;19.50;99.90;;;;;;4593415;19;20118;-74
2023/09/02 02:55:38;;;;;;;8.70;6.05;;;19.50;99.90;;;;;;4591749;19;20003;-74
2023/09/02 02:57:12;;;;;;;7.07;5.68;;;19.50;99.90;;;;;;4592544;19;19999;-74
2023/09/02 02:58:47;;;;;;;7.28;5.68;;;19.50;99.90;;;;;;4592187;19;20414;-74
2023/09/02 03:00:21;;;;;;;7.82;5.82;;;19.50;99.90;;;;;;4593208;19;20283;-74
2023/09/02 03:01:55;;;;;;;7.38;5.72;;;19.50;99.90;;;;;;4592970;19;20058;-74
2023/09/02 03:03:32;;;;;;;8.27;5.85;;;19.50;99.90;;;;;;4591856;19;19999;-74
2023/09/02 03:05:06;;;;;;;8.93;5.80;;;19.50;99.90;;;;;;4591519;19;20005;-74
2023/09/02 03:06:39;;;;;;;8.60;5.88;;;19.50;99.90;;;;;;4592795;19;20100;-74
2023/09/02 03:08:17;;;;;;;7.60;5.28;;;19.50;99.90;;;;;;4591262;19;20444;-74
2023/09/02 03:09:51;;;;;;;6.70;5.25;;;19.50;99.90;;;;;;4593035;19;20074;-74
2023/09/02 03:11:25;;;;;;;8.60;5.85;;;19.50;99.90;;;;;;4592697;19;20002;-74
2023/09/02 03:13:01;;;;;;;10.40;6.72;;;19.50;99.90;;;;;;4592649;19;20023;-74
2023/09/02 03:14:35;;;;;;;11.52;7.05;;;19.40;99.90;;;;;;4592682;19;20006;-74
2023/09/02 03:16:11;;;;;;;8.02;6.35;;;19.50;99.90;;;;;;4592639;19;19999;-74
2023/09/02 03:17:46;;;;;;;9.77;7.72;;;19.50;99.90;;;;;;4590064;19;20007;-74
2023/09/02 03:19:20;;;;;;;13.48;8.25;;;19.50;99.90;;;;;;4592355;19;20309;-74
2023/09/02 03:20:55;;;;;;;10.60;7.50;;;19.40;99.90;;;;;;4592467;19;19999;-74
2023/09/02 03:22:30;;;;;;;14.27;8.50;;;19.40;99.90;;;;;;4592895;19;20006;-74
2023/09/02 03:24:05;;;;;;;12.40;8.75;;;19.40;99.90;;;;;;4592783;19;19999;-75
2023/09/02 03:25:39;;;;;;;10.05;7.78;;;19.40;99.90;;;;;;4592728;19;20013;-78
2023/09/02 03:27:14;;;;;;;10.13;7.47;;;19.40;99.90;;;;;;4592565;19;20002;-76
2023/09/02 03:28:48;;;;;;;10.57;7.05;;;19.40;99.90;;;;;;4593679;19;20002;-78
2023/09/02 03:30:22;;;;;;;12.27;6.88;;;19.50;99.90;;;;;;4593678;19;20029;-77
2023/09/02 03:31:58;;;;;;;9.55;7.20;;;19.50;99.90;;;;;;4594914;19;20002;-79
2023/09/02 03:33:32;;;;;;;9.85;6.93;;;19.40;99.90;;;;;;4594967;19;19999;-77
2023/09/02 03:35:07;;;;;;;9.15;6.63;;;19.40;99.90;;;;;;4594053;19;19998;-77
2023/09/02 03:36:43;;;;;;;9.68;7.47;;;19.50;99.90;;;;;;4594280;19;20074;-79
2023/09/02 03:38:17;;;;;;;8.93;6.60;;;19.40;99.90;;;;;;4593544;19;20007;-79
2023/09/02 03:39:51;;;;;;;8.98;7.05;;;19.50;99.90;;;;;;4594556;19;19999;-79
2023/09/02 03:41:27;;;;;;;8.50;6.72;;;19.40;99.90;;;;;;4593328;19;20040;-76
2023/09/02 03:43:02;;;;;;;10.48;7.22;;;19.40;99.90;;;;;;4595110;19;20070;-79
2023/09/02 03:44:38;;;;;;;8.55;6.72;;;19.50;99.90;;;;;;4593830;19;20417;-76
2023/09/02 03:46:18;;;;;;;10.60;7.03;;;19.40;99.90;;;;;;4592769;19;20007;-76
2023/09/02 03:47:52;;;;;;;9.35;6.95;;;19.40;99.90;;;;;;4592967;19;19998;-78
2023/09/02 03:49:26;;;;;;;8.88;7.10;;;19.50;99.90;;;;;;4592943;19;20003;-77
2023/09/02 03:51:11;;;;;;;8.13;6.35;;;19.40;99.90;;;;;;4593503;19;20002;-77
2023/09/02 03:52:45;;;;;;;10.13;7.80;;;19.40;99.90;;;;;;4593413;19;20270;-78
2023/09/02 03:54:19;;;;;;;9.85;7.10;;;19.40;99.90;;;;;;4593631;19;20033;-76
2023/09/02 03:55:54;;;;;;;10.55;7.25;;;19.40;99.90;;;;;;4592490;19;20006;-76
2023/09/02 03:57:28;;;;;;;11.25;7.57;;;19.40;99.90;;;;;;4592681;19;20480;-76
2023/09/02 03:59:10;;;;;;;9.30;6.80;;;19.40;99.90;;;;;;4592590;19;20423;-79
2023/09/02 04:00:45;;;;;;;9.50;7.53;;;19.40;99.90;;;;;;4593106;19;20310;-79
2023/09/02 04:02:19;;;;;;;11.70;7.15;;;19.40;99.90;;;;;;4593398;19;20003;-76
2023/09/02 04:03:53;;;;;;;10.25;7.72;;;19.40;99.90;;;;;;4593161;19;19998;-77
2023/09/02 04:05:28;;;;;;;10.18;7.88;;;19.40;99.90;;;;;;4592656;19;20032;-77
2023/09/02 04:07:04;;;;;;;10.70;6.78;;;19.40;99.90;;;;;;4590982;19;20007;-74
2023/09/02 04:08:40;;;;;;;10.68;6.43;;;19.40;99.90;;;;;;4590705;19;20322;-74
2023/09/02 04:10:16;;;;;;;6.85;5.88;;;19.40;99.90;;;;;;4591957;19;20014;-73
2023/09/02 04:11:50;;;;;;;10.93;6.15;;;19.40;99.90;;;;;;4591695;19;20027;-74
2023/09/02 04:13:25;;;;;;;7.70;6.63;;;19.40;99.90;;;;;;4591595;19;20448;-74
2023/09/02 04:15:00;;;;;;;8.45;6.22;;;19.40;99.90;;;;;;4592367;19;20010;-74
2023/09/02 04:16:34;;;;;;;7.57;6.10;;;19.40;99.90;;;;;;4591401;19;19998;-73
2023/09/02 04:18:08;;;;;;;7.95;6.35;;;19.40;99.90;;;;;;4590572;19;20062;-74
2023/09/02 04:19:43;;;;;;;8.48;6.40;;;19.40;99.90;;;;;;4590100;19;20006;-74
2023/09/02 04:21:17;;;;;;;7.95;6.30;;;19.40;99.90;;;;;;4590959;19;20009;-74
2023/09/02 04:22:52;;;;;;;9.85;6.55;;;19.40;99.90;;;;;;4590397;19;20287;-74
2023/09/02 04:24:28;;;;;;;10.60;6.47;;;19.40;99.90;;;;;;4591151;19;20006;-74
2023/09/02 04:26:03;;;;;;;8.30;6.53;;;19.40;99.90;;;;;;4591616;19;20006;-74
2023/09/02 04:27:37;;;;;;;10.88;6.45;;;19.40;99.90;;;;;;4591407;19;19998;-73
2023/09/02 04:29:12;;;;;;;8.75;6.43;;;19.40;99.90;;;;;;4591359;19;20321;-74
2023/09/02 04:30:46;;;;;;;9.02;6.85;;;19.40;99.90;;;;;;4590048;19;20010;-73
2023/09/02 04:32:20;;;;;;;8.10;6.45;;;19.40;99.90;;;;;;4591139;19;19998;-74
2023/09/02 04:33:56;;;;;;;10.05;7.65;;;19.40;99.90;;;;;;4591366;19;20006;-73
2023/09/02 04:35:36;;;;;;;17.13;7.43;;;19.40;99.90;;;;;;4591359;19;19998;-74
2023/09/02 04:37:11;;;;;;;10.13;6.60;;;19.40;99.90;;;;;;4590845;19;20456;-74
2023/09/02 04:38:47;;;;;;;11.05;7.47;;;19.40;99.90;;;;;;4590269;19;19998;-73
2023/09/02 04:40:21;;;;;;;10.65;6.72;;;19.40;99.90;;;;;;4591219;19;20005;-74
2023/09/02 04:41:54;;;;;;;10.93;7.18;;;19.40;99.90;;;;;;4591329;19;19995;-74
2023/09/02 04:43:31;;;;;;;9.63;6.60;;;19.40;99.90;;;;;;4591251;19;20009;-74
2023/09/02 04:45:06;;;;;;;8.98;7.10;;;19.40;99.90;;;;;;4591227;19;20006;-74
2023/09/02 04:46:40;;;;;;;14.25;6.90;;;19.40;99.90;;;;;;4590974;19;20024;-74
2023/09/02 04:48:17;;;;;;;8.50;5.70;;;19.40;99.90;;;;;;4590790;19;20013;-74
2023/09/02 04:49:51;;;;;;;8.77;6.25;;;19.40;99.90;;;;;;4590927;19;20003;-74
2023/09/02 04:51:25;;;;;;;8.20;6.22;;;19.40;99.90;;;;;;4590669;19;20007;-74
2023/09/02 04:53:00;;;;;;;7.65;6.07;;;19.50;99.90;;;;;;4590623;19;20013;-74
2023/09/02 04:54:34;;;;;;;8.43;6.15;;;19.50;99.90;;;;;;4589237;19;20031;-73
2023/09/02 04:56:09;;;;;;;8.77;5.35;;;19.50;99.90;;;;;;4590241;19;20009;-74
2023/09/02 04:57:45;;;;;;;10.77;6.53;;;19.50;99.90;;;;;;4588446;19;20283;-74
2023/09/02 04:59:19;;;;;;;8.00;6.63;;;19.40;99.90;;;;;;4590418;19;20417;-74
2023/09/02 05:00:53;;;;;;;7.85;6.25;;;19.40;99.90;;;;;;4590761;19;19998;-74
2023/09/02 05:02:28;;;;;;;8.35;6.22;;;19.50;99.90;;;;;;4589430;19;20307;-74
2023/09/02 05:04:03;;;;;;;8.98;5.65;;;19.50;99.90;;;;;;4590260;19;20014;-74
2023/09/02 05:05:38;;;;;;;7.15;6.32;;;19.50;99.90;;;;;;4590775;19;20018;-74
2023/09/02 05:07:14;;;;;;;7.72;6.25;;;19.50;99.90;;;;;;4590550;19;20455;-74
2023/09/02 05:08:54;;;;;;;10.52;6.85;;;19.40;99.90;;;;;;4587763;19;20006;-73
2023/09/02 05:10:28;;;;;;;8.57;6.25;;;19.50;99.90;;;;;;4590184;19;19999;-74
2023/09/02 05:12:04;;;;;;;10.35;7.00;;;19.50;99.90;;;;;;4590406;19;20018;-74
2023/09/02 05:13:37;;;;;;;8.75;6.82;;;19.50;99.90;;;;;;4589164;19;20003;-74
2023/09/02 05:15:12;;;;;;;9.20;7.03;;;19.40;99.90;;;;;;4590137;19;20010;-74
2023/09/02 05:16:48;;;;;;;10.65;7.30;;;19.50;99.90;;;;;;4590120;19;20013;-74
2023/09/02 05:18:22;;;;;;;11.35;7.20;;;19.50;99.90;;;;;;4589489;19;20037;-74
2023/09/02 05:19:57;;;;;;;10.57;6.90;;;19.50;99.90;;;;;;4590516;19;20032;-74
2023/09/02 05:21:32;;;;;;;8.80;6.57;;;19.50;99.90;;;;;;4590464;19;20010;-74
2023/09/02 05:23:06;;;;;;;8.82;7.40;;;19.50;99.90;;;;;;4590744;19;19999;-73
2023/09/02 05:24:40;;;;;;;9.43;6.95;;;19.50;99.90;;;;;;4590604;19;20283;-74
2023/09/02 05:26:15;;;;;;;9.88;6.75;;;19.60;99.90;;;;;;4590441;19;20002;-74
2023/09/02 05:27:50;;;;;;;7.70;6.35;;;19.60;99.90;;;;;;4590258;19;20007;-74
2023/09/02 05:29:24;;;;;;;9.73;7.45;;;19.60;99.90;;;;;;4590945;19;20003;-74
2023/09/02 05:30:59;;;;;;;8.20;6.75;;;19.60;99.90;;;;;;4590971;19;20425;-74
2023/09/02 05:32:35;;;;;;;10.93;6.75;;;19.60;99.90;;;;;;4595528;19;20007;-74
2023/09/02 05:34:10;;;;;;;11.38;7.50;;;19.60;99.90;;;;;;4595680;19;20006;-75
2023/09/02 05:35:45;;;;;;;9.02;7.30;;;19.70;99.90;;;;;;4595777;19;20081;-74
2023/09/02 05:37:20;;;;;;;11.25;7.38;;;19.70;99.90;;;;;;4594414;19;20018;-74
2023/09/02 05:38:54;;;;;;;11.15;7.05;;;19.70;99.90;;;;;;4594022;19;20029;-74
2023/09/02 05:40:29;;;;;;;10.35;7.65;;;19.80;99.90;;;;;;4593922;19;20014;-74
2023/09/02 05:42:03;;;;;;;11.45;7.93;;;19.80;99.90;;;;;;4594187;19;20493;-73
2023/09/02 05:43:37;;;;;;;10.45;7.72;;;19.80;99.90;;;;;;4594955;19;20006;-73
2023/09/02 05:45:12;;;;;;;9.90;7.57;;;19.90;99.90;;;;;;4595159;19;20322;-73
2023/09/02 05:46:47;;;;;;;8.02;6.70;;;19.90;99.90;;;;;;4594094;19;20306;-73
2023/09/02 05:48:22;;;;;;;11.32;7.13;;;20.00;99.90;;;;;;4593843;19;20003;-74
2023/09/02 05:50:00;;;;;;;9.63;7.03;;;20.00;99.90;;;;;;4595208;19;20434;-74
2023/09/02 05:51:35;;;;;;;12.25;7.20;;;20.00;99.90;;;;;;4595197;19;20006;-74
2023/09/02 05:53:09;;;;;;;7.97;6.30;;;20.10;99.90;;;;;;4595289;19;20334;-74
2023/09/02 05:54:44;;;;;;;9.65;7.18;;;20.10;99.90;;;;;;4595105;19;20325;-74
2023/09/02 05:56:18;;;;;;;8.98;7.10;;;20.10;99.90;;;;;;4595304;19;19998;-76
2023/09/02 05:57:53;;;;;;;9.40;7.15;;;20.10;99.90;;;;;;4593505;19;20022;-74
2023/09/02 05:59:29;;;;;;;9.27;7.20;;;20.10;99.90;;;;;;4595029;19;20018;-74
2023/09/02 06:01:08;;;;;;;9.63;7.10;;;20.10;99.90;;;;;;4595221;19;20002;-75
2023/09/02 06:02:42;;;;;;;8.48;6.70;;;20.10;99.90;;;;;;4594868;19;20005;-74
2023/09/02 06:04:17;;;;;;;10.45;7.05;;;20.10;99.90;;;;;;4595122;19;20011;-74
2023/09/02 06:05:50;;;;;;;8.88;6.53;;;20.20;99.90;;;;;;4594910;19;20022;-75
2023/09/02 06:07:24;;;;;;;8.65;6.82;;;20.20;99.90;;;;;;4594841;19;20002;-74
2023/09/02 06:09:00;;;;;;;9.20;6.53;;;20.20;99.90;;;;;;4591925;19;20286;-73
2023/09/02 06:10:36;;;;;;;8.48;6.35;;;20.20;99.90;;;;;;4594642;19;20021;-73
2023/09/02 06:12:10;;;;;;;9.55;6.65;;;20.20;99.90;;;;;;4594929;19;20025;-73
2023/09/02 06:13:46;;;;;;;9.65;6.80;;;20.20;99.90;;;;;;4594926;19;20425;-73
2023/09/02 06:15:21;;;;;;;7.97;6.25;;;20.20;99.90;;;;;;4594910;19;19998;-73
2023/09/02 06:16:55;;;;;;;9.60;6.43;;;20.20;99.90;;;;;;4594511;19;19998;-74
2023/09/02 06:18:31;;;;;;;8.98;6.32;;;20.20;99.90;;;;;;4593337;19;20019;-73
2023/09/02 06:20:06;;;;;;;9.85;6.03;;;20.20;99.90;;;;;;4593427;19;20009;-73
2023/09/02 06:21:40;;;;;;;7.82;5.72;;;20.20;99.90;;;;;;4593477;19;20009;-74
2023/09/02 06:23:16;;;;;;;8.73;6.07;;;20.20;99.90;;;;;;4594415;19;20090;-73
2023/09/02 06:24:54;;;;;;;8.02;5.80;;;20.20;99.90;;;;;;4594659;19;20442;-73
2023/09/02 06:26:30;;;;;;;6.97;5.82;;;20.20;99.90;;;;;;4593180;19;19999;-74
2023/09/02 06:28:07;;;;;;;9.95;5.78;;;20.20;99.90;;;;;;4592716;19;20010;-74
2023/09/02 06:29:45;;;;;;;7.90;4.97;;;20.20;99.90;;;;;;4594006;19;20002;-73
2023/09/02 06:31:21;;;;;;;8.43;5.13;;;20.20;99.90;;;;;;4594351;19;20021;-73
2023/09/02 06:32:57;;;;;;;8.70;5.13;;;20.20;99.90;;;;;;4594556;19;20025;-73
2023/09/02 06:34:30;;;;;;;10.95;5.72;;;20.20;99.90;;;;;;4594421;19;20002;-73
2023/09/02 06:36:12;;;;;;;9.27;6.05;;;20.20;99.90;;;;;;4592649;19;20373;-73
2023/09/02 06:37:49;;;;;;;7.95;4.85;;;20.30;99.90;;;;;;4592791;19;20098;-73
2023/09/02 06:39:23;;;;;;;8.52;4.32;;;20.20;99.90;;;;;;4592670;19;20006;-73
2023/09/02 06:40:57;;;;;;;6.32;4.70;;;20.30;99.90;;;;;;4594012;19;20334;-73
2023/09/02 06:42:35;;;;;;;7.30;4.10;;;20.30;99.90;;;;;;4593538;19;20002;-73
2023/09/02 06:44:10;;;;;;;5.53;3.67;;;20.30;99.90;;;;;;4593410;19;20003;-73
2023/09/02 06:45:46;;;;;;;5.68;4.00;;;20.20;99.90;;;;;;4593972;19;20029;-74
2023/09/02 06:47:41;;;;;;;6.93;3.80;;;20.20;99.90;;;;;;4588435;19;20042;-74
2023/09/02 06:49:40;;;;;;;6.28;4.03;;;20.20;99.90;;;;;;4592032;19;20461;-74
2023/09/02 06:51:16;;;;;;;6.18;4.13;;;20.20;99.90;;;;;;4592526;19;20014;-74
2023/09/02 06:52:51;;;;;;;7.35;4.15;;;20.20;99.90;;;;;;4592993;19;20415;-74
2023/09/02 06:54:26;;;;;;;6.53;3.90;;;20.30;99.90;;;;;;4591174;19;20007;-74
2023/09/02 06:56:02;;;;;;;9.60;4.10;;;20.40;99.90;;;;;;4594235;19;20017;-74
2023/09/02 06:57:40;;;;;;;6.45;3.90;;;20.40;99.90;;;;;;4593567;19;20412;-73
2023/09/02 06:59:25;;;;;;;5.57;4.03;;;20.50;99.90;;;;;;4586906;19;20082;-74
2023/09/02 07:01:04;;;;;;;6.35;3.85;;;20.50;99.90;;;;;;4591222;19;20007;-74
2023/09/02 07:02:48;;;;;;;5.28;3.90;;;20.50;99.90;;;;;;4590280;19;20074;-75
2023/09/02 07:04:43;;;;;;;5.43;3.72;;;20.60;99.90;;;;;;4589157;19;20022;-74
2023/09/02 07:06:30;;;;;;;5.78;3.72;;;20.60;99.90;;;;;;4589162;19;20017;-76
2023/09/02 07:08:04;;;;;;;5.63;3.50;;;20.70;99.90;;;;;;4589680;19;20019;-74
2023/09/02 07:09:38;;;;;;;3.97;2.80;;;20.60;99.90;;;;;;4593346;19;20039;-74
2023/09/02 07:11:13;;;;;;;6.25;3.38;;;20.60;99.90;;;;;;4592430;19;20018;-74
2023/09/02 07:12:50;;;;;;;5.30;2.80;;;20.60;99.90;;;;;;4593196;19;20070;-74
2023/09/02 07:14:24;;;;;;;4.95;3.05;;;20.60;99.90;;;;;;4592420;19;20430;-75
2023/09/02 07:16:02;;;;;;;6.28;3.38;;;20.60;99.90;;;;;;4594129;19;20042;-74
2023/09/02 07:17:36;;;;;;;5.00;3.30;;;20.70;99.90;;;;;;4590850;19;20003;-74
2023/09/02 07:19:10;;;;;;;5.60;2.97;;;20.60;99.90;;;;;;4591499;19;20025;-74
2023/09/02 07:20:45;;;;;;;3.30;2.17;;;20.60;99.90;;;;;;4592547;19;20019;-74
2023/09/02 07:22:20;;;;;;;5.55;2.70;;;20.60;99.90;;;;;;4592801;19;20006;-74
2023/09/02 07:23:55;;;;;;;4.85;3.00;;;20.60;99.90;;;;;;4592048;19;20445;-73
2023/09/02 07:25:31;;;;;;;6.72;3.13;;;20.60;99.90;;;;;;4592825;19;20007;-74
2023/09/02 07:27:05;;;;;;;5.43;3.13;;;20.60;99.90;;;;;;4593050;19;20007;-77
2023/09/02 07:28:42;;;;;;;4.80;3.00;;;20.60;99.90;;;;;;4590600;19;20018;-74
2023/09/02 07:30:17;;;;;;;5.72;2.95;;;20.60;99.90;;;;;;4592686;19;20079;-73
2023/09/02 07:31:53;;;;;;;5.22;2.55;;;20.60;99.90;;;;;;4593086;19;20458;-74
2023/09/02 07:33:27;;;;;;;4.93;2.58;;;20.60;99.90;;;;;;4591615;19;20006;-73
2023/09/02 07:35:04;;;;;;;4.60;2.30;;;20.60;99.90;;;;;;4592724;19;20089;-76
2023/09/02 07:36:39;;;;;;;3.45;2.42;;;20.60;99.90;;;;;;4592852;19;20446;-74
2023/09/02 07:38:14;;;;;;;5.38;2.38;;;20.60;99.90;;;;;;4592526;19;20323;-74
2023/09/02 07:39:49;;;;;;;6.03;2.92;;;20.60;99.90;;;;;;4592861;19;20006;-74
2023/09/02 07:41:23;;;;;;;5.03;2.78;;;20.60;99.90;;;;;;4593057;19;20006;-75
2023/09/02 07:43:02;;;;;;;6.28;3.22;;;20.60;99.90;;;;;;4593050;19;20311;-74
2023/09/02 07:44:39;;;;;;;3.92;2.10;;;20.60;99.90;;;;;;4592845;19;20018;-74
2023/09/02 07:46:13;;;;;;;4.00;2.28;;;20.60;99.90;;;;;;4592750;19;20006;-74
2023/09/02 07:47:48;;;;;;;5.53;2.15;;;20.60;99.90;;;;;;4592679;19;20006;-74
2023/09/02 07:49:24;;;;;;;4.75;2.20;;;20.60;99.90;;;;;;4592739;19;20007;-74
2023/09/02 07:50:58;;;;;;;4.22;2.50;;;20.70;99.90;;;;;;4592962;19;20413;-73
2023/09/02 07:52:32;;;;;;;2.92;1.80;;;20.80;99.90;;;;;;4592864;19;20016;-73
2023/09/02 07:54:08;;;;;;;4.20;1.95;;;20.80;99.90;;;;;;4592619;19;20002;-73
2023/09/02 07:55:43;;;;;;;3.05;2.10;;;20.80;99.90;;;;;;4592641;19;19999;-73
2023/09/02 07:57:18;;;;;;;4.53;2.10;;;20.80;99.90;;;;;;4592295;19;20009;-74
2023/09/02 07:58:55;;;;;;;3.92;2.28;;;20.80;99.90;;;;;;4590507;19;20438;-73
2023/09/02 08:00:29;;;;;;;4.30;2.22;;;20.90;99.90;;;;;;4592166;19;20013;-75
2023/09/02 08:02:03;;;;;;;4.78;1.90;;;20.90;99.90;;;;;;4591462;19;20002;-73
2023/09/02 08:03:40;;;;;;;5.10;2.05;;;20.90;99.90;;;;;;4592142;19;20021;-75
2023/09/02 08:05:14;;;;;;;2.65;1.50;;;21.00;99.90;;;;;;4592473;19;20074;-75
2023/09/02 08:06:49;;;;;;;3.15;1.90;;;21.10;99.90;;;;;;4592949;19;20009;-74
2023/09/02 08:08:27;;;;;;;3.28;1.67;;;21.00;99.90;;;;;;4591167;19;20029;-73
2023/09/02 08:10:04;;;;;;;3.22;1.45;;;21.10;99.90;;;;;;4594593;19;20018;-74
2023/09/02 08:11:38;;;;;;;2.75;1.65;;;21.10;99.90;;;;;;4593462;19;20018;-76
2023/09/02 08:13:13;;;;;;;2.75;1.38;;;21.10;99.90;;;;;;4593483;19;20010;-75
2023/09/02 08:14:47;;;;;;;2.55;1.27;;;21.00;99.90;;;;;;4591911;19;20149;-74
2023/09/02 08:16:22;;;;;;;3.13;1.55;;;21.00;99.90;;;;;;4592933;19;20002;-74
2023/09/02 08:17:58;;;;;;;2.85;1.50;;;21.00;99.90;;;;;;4591743;19;20010;-74
2023/09/02 08:19:32;;;;;;;2.60;1.50;;;21.10;99.90;;;;;;4592823;19;20015;-75
2023/09/02 08:21:10;;;;;;;2.58;1.40;;;21.10;99.90;;;;;;4593221;19;20007;-74
2023/09/02 08:22:45;;;;;;;3.47;2.33;;;21.20;99.90;;;;;;4592032;19;20374;-75
2023/09/02 08:24:21;;;;;;;2.92;1.50;;;21.30;99.90;;;;;;4591961;19;20010;-75
2023/09/02 08:25:56;;;;;;;2.85;1.65;;;21.30;99.90;;;;;;4592257;19;19995;-74
2023/09/02 08:27:32;;;;;;;3.20;1.77;;;21.40;99.90;;;;;;4591960;19;20007;-74
2023/09/02 08:29:06;;;;;;;4.93;1.58;;;21.50;99.90;;;;;;4591553;19;20022;-75
2023/09/02 08:30:44;;;;;;;3.58;1.70;;;21.60;99.90;;;;;;4591279;19;20002;-75
2023/09/02 08:32:19;;;;;;;4.47;2.72;;;21.70;99.90;;;;;;4590308;19;20010;-75
2023/09/02 08:33:54;;;;;;;4.05;1.90;;;21.80;99.90;;;;;;4589831;19;20102;-75